sensor_id;sensor_type;location;lat;lon;timestamp;temperature;humidity
40368;DHT22;26075;43.320;21.920;2023-05-07T00:11:23;17.80;50.00
40368;DHT22;26075;43.320;21.920;2023-05-07T00:31:28;17.60;50.50
40368;DHT22;26075;43.320;21.920;2023-05-07T00:46:32;17.50;50.60
40368;DHT22;26075;43.320;21.920;2023-05-07T00:51:33;17.40;51.10
40368;DHT22;26075;43.320;21.920;2023-05-07T00:56:34;18.00;51.70
40368;DHT22;26075;43.320;21.920;2023-05-07T01:06:37;17.40;50.80
40368;DHT22;26075;43.320;21.920;2023-05-07T01:11:38;17.10;51.10
40368;DHT22;26075;43.320;21.920;2023-05-07T01:21:46;17.30;51.10
40368;DHT22;26075;43.320;21.920;2023-05-07T01:31:48;17.10;51.70
40368;DHT22;26075;43.320;21.920;2023-05-07T01:36:52;17.30;51.80
40368;DHT22;26075;43.320;21.920;2023-05-07T01:41:55;17.20;51.90
40368;DHT22;26075;43.320;21.920;2023-05-07T01:46:57;17.10;51.50
40368;DHT22;26075;43.320;21.920;2023-05-07T01:51:59;17.10;51.60
40368;DHT22;26075;43.320;21.920;2023-05-07T02:07:02;17.50;52.60
40368;DHT22;26075;43.320;21.920;2023-05-07T02:12:03;16.80;52.40
40368;DHT22;26075;43.320;21.920;2023-05-07T02:22:05;17.00;52.10
40368;DHT22;26075;43.320;21.920;2023-05-07T02:27:06;17.30;53.00
40368;DHT22;26075;43.320;21.920;2023-05-07T02:32:07;17.20;53.00
40368;DHT22;26075;43.320;21.920;2023-05-07T02:37:07;16.80;53.20
40368;DHT22;26075;43.320;21.920;2023-05-07T02:52:10;16.70;53.50
40368;DHT22;26075;43.320;21.920;2023-05-07T03:02:12;16.80;53.60
40368;DHT22;26075;43.320;21.920;2023-05-07T03:07:13;16.70;54.00
40368;DHT22;26075;43.320;21.920;2023-05-07T03:52:24;17.10;54.10
40368;DHT22;26075;43.320;21.920;2023-05-07T04:02:27;17.00;53.60
40368;DHT22;26075;43.320;21.920;2023-05-07T04:12:29;16.70;53.30
40368;DHT22;26075;43.320;21.920;2023-05-07T04:27:32;17.10;54.10
40368;DHT22;26075;43.320;21.920;2023-05-07T04:47:36;17.20;53.40
40368;DHT22;26075;43.320;21.920;2023-05-07T05:02:41;17.70;53.30
40368;DHT22;26075;43.320;21.920;2023-05-07T05:12:43;17.70;53.00
40368;DHT22;26075;43.320;21.920;2023-05-07T05:42:50;18.50;53.10
40368;DHT22;26075;43.320;21.920;2023-05-07T06:02:54;18.70;53.00
40368;DHT22;26075;43.320;21.920;2023-05-07T06:07:55;18.50;52.90
40368;DHT22;26075;43.320;21.920;2023-05-07T06:22:58;18.40;52.70
40368;DHT22;26075;43.320;21.920;2023-05-07T06:27:59;18.60;52.70
40368;DHT22;26075;43.320;21.920;2023-05-07T06:32:59;18.70;52.60
40368;DHT22;26075;43.320;21.920;2023-05-07T06:48:03;18.50;52.50
40368;DHT22;26075;43.320;21.920;2023-05-07T06:53:03;18.60;52.40
40368;DHT22;26075;43.320;21.920;2023-05-07T07:03:06;19.10;52.40
40368;DHT22;26075;43.320;21.920;2023-05-07T07:08:07;19.20;52.30
40368;DHT22;26075;43.320;21.920;2023-05-07T07:13:08;19.20;52.10
40368;DHT22;26075;43.320;21.920;2023-05-07T07:18:08;19.00;51.80
40368;DHT22;26075;43.320;21.920;2023-05-07T07:23:09;19.40;51.90
40368;DHT22;26075;43.320;21.920;2023-05-07T07:28:10;19.30;51.70
40368;DHT22;26075;43.320;21.920;2023-05-07T07:38:12;19.70;51.60
40368;DHT22;26075;43.320;21.920;2023-05-07T07:53:15;20.10;51.50
40368;DHT22;26075;43.320;21.920;2023-05-07T07:58:16;20.30;51.50
40368;DHT22;26075;43.320;21.920;2023-05-07T08:03:17;20.00;51.20
40368;DHT22;26075;43.320;21.920;2023-05-07T08:13:18;20.70;51.10
40368;DHT22;26075;43.320;21.920;2023-05-07T08:23:21;20.50;50.60
40368;DHT22;26075;43.320;21.920;2023-05-07T08:28:21;20.60;50.50
40368;DHT22;26075;43.320;21.920;2023-05-07T08:33:22;20.60;50.40
40368;DHT22;26075;43.320;21.920;2023-05-07T08:38:23;20.80;50.40
40368;DHT22;26075;43.320;21.920;2023-05-07T08:43:26;20.60;50.20
40368;DHT22;26075;43.320;21.920;2023-05-07T08:48:29;20.70;50.10
40368;DHT22;26075;43.320;21.920;2023-05-07T08:53:31;20.90;50.10
40368;DHT22;26075;43.320;21.920;2023-05-07T08:58:33;21.10;50.10
40368;DHT22;26075;43.320;21.920;2023-05-07T09:03:34;21.20;50.00
40368;DHT22;26075;43.320;21.920;2023-05-07T09:08:35;21.20;49.80
40368;DHT22;26075;43.320;21.920;2023-05-07T09:13:37;21.20;49.80
40368;DHT22;26075;43.320;21.920;2023-05-07T09:18:44;21.40;49.70
40368;DHT22;26075;43.320;21.920;2023-05-07T09:23:45;21.30;49.60
40368;DHT22;26075;43.320;21.920;2023-05-07T09:28:46;21.50;49.80
40368;DHT22;26075;43.320;21.920;2023-05-07T09:43:53;21.80;49.90
40368;DHT22;26075;43.320;21.920;2023-05-07T09:48:57;21.70;49.60
40368;DHT22;26075;43.320;21.920;2023-05-07T09:53:58;21.60;49.60
40368;DHT22;26075;43.320;21.920;2023-05-07T09:59:03;21.70;49.60
40368;DHT22;26075;43.320;21.920;2023-05-07T10:04:06;21.90;49.60
40368;DHT22;26075;43.320;21.920;2023-05-07T10:09:08;21.80;49.50
40368;DHT22;26075;43.320;21.920;2023-05-07T10:14:10;21.90;49.40
40368;DHT22;26075;43.320;21.920;2023-05-07T10:19:11;21.70;49.30
40368;DHT22;26075;43.320;21.920;2023-05-07T10:24:21;21.90;49.20
40368;DHT22;26075;43.320;21.920;2023-05-07T10:34:45;21.80;48.80
40368;DHT22;26075;43.320;21.920;2023-05-07T10:39:47;22.30;48.90
40368;DHT22;26075;43.320;21.920;2023-05-07T10:44:48;21.90;48.50
40368;DHT22;26075;43.320;21.920;2023-05-07T11:05:32;22.50;48.10
40368;DHT22;26075;43.320;21.920;2023-05-07T11:10:59;22.50;47.80
40368;DHT22;26075;43.320;21.920;2023-05-07T11:21:02;22.30;47.40
40368;DHT22;26075;43.320;21.920;2023-05-07T11:26:07;22.50;47.30
40368;DHT22;26075;43.320;21.920;2023-05-07T11:31:10;22.70;47.30
40368;DHT22;26075;43.320;21.920;2023-05-07T11:36:12;22.70;46.80
40368;DHT22;26075;43.320;21.920;2023-05-07T11:51:19;23.00;45.90
40368;DHT22;26075;43.320;21.920;2023-05-07T12:01:22;23.20;45.00
40368;DHT22;26075;43.320;21.920;2023-05-07T12:06:23;23.40;44.70
40368;DHT22;26075;43.320;21.920;2023-05-07T12:11:25;23.40;44.30
40368;DHT22;26075;43.320;21.920;2023-05-07T12:16:26;23.40;43.80
40368;DHT22;26075;43.320;21.920;2023-05-07T12:21:27;23.70;43.80
40368;DHT22;26075;43.320;21.920;2023-05-07T12:26:28;23.70;43.40
40368;DHT22;26075;43.320;21.920;2023-05-07T12:31:29;24.30;43.30
40368;DHT22;26075;43.320;21.920;2023-05-07T12:36:40;24.00;43.00
40368;DHT22;26075;43.320;21.920;2023-05-07T12:41:58;24.20;42.40
40368;DHT22;26075;43.320;21.920;2023-05-07T12:47:01;24.10;42.20
40368;DHT22;26075;43.320;21.920;2023-05-07T12:52:02;24.30;42.20
40368;DHT22;26075;43.320;21.920;2023-05-07T12:57:06;24.50;41.80
40368;DHT22;26075;43.320;21.920;2023-05-07T13:02:07;24.80;41.70
40368;DHT22;26075;43.320;21.920;2023-05-07T13:07:08;25.00;41.80
40368;DHT22;26075;43.320;21.920;2023-05-07T13:12:09;24.80;41.80
40368;DHT22;26075;43.320;21.920;2023-05-07T13:17:10;25.10;41.60
40368;DHT22;26075;43.320;21.920;2023-05-07T13:22:10;25.20;40.40
40368;DHT22;26075;43.320;21.920;2023-05-07T13:27:11;25.40;41.00
40368;DHT22;26075;43.320;21.920;2023-05-07T13:32:12;25.50;40.90
40368;DHT22;26075;43.320;21.920;2023-05-07T13:37:12;25.50;40.60
40368;DHT22;26075;43.320;21.920;2023-05-07T13:42:13;25.60;40.60
40368;DHT22;26075;43.320;21.920;2023-05-07T13:47:14;25.60;40.50
40368;DHT22;26075;43.320;21.920;2023-05-07T13:52:15;25.50;40.40
40368;DHT22;26075;43.320;21.920;2023-05-07T13:57:16;25.40;40.40
40368;DHT22;26075;43.320;21.920;2023-05-07T14:02:17;25.20;40.60
40368;DHT22;26075;43.320;21.920;2023-05-07T14:07:17;24.90;40.70
40368;DHT22;26075;43.320;21.920;2023-05-07T14:12:18;24.70;40.90
40368;DHT22;26075;43.320;21.920;2023-05-07T14:17:19;24.50;40.70
40368;DHT22;26075;43.320;21.920;2023-05-07T14:22:21;24.50;41.00
40368;DHT22;26075;43.320;21.920;2023-05-07T14:27:22;24.40;41.00
40368;DHT22;26075;43.320;21.920;2023-05-07T14:32:23;24.40;41.10
40368;DHT22;26075;43.320;21.920;2023-05-07T14:37:24;24.40;41.10
40368;DHT22;26075;43.320;21.920;2023-05-07T14:42:25;24.30;41.10
40368;DHT22;26075;43.320;21.920;2023-05-07T14:47:25;24.30;41.10
40368;DHT22;26075;43.320;21.920;2023-05-07T14:52:26;24.30;41.10
40368;DHT22;26075;43.320;21.920;2023-05-07T14:57:28;24.20;41.00
40368;DHT22;26075;43.320;21.920;2023-05-07T15:02:29;24.20;41.00
40368;DHT22;26075;43.320;21.920;2023-05-07T15:07:30;24.20;41.10
40368;DHT22;26075;43.320;21.920;2023-05-07T15:12:32;24.20;41.00
40368;DHT22;26075;43.320;21.920;2023-05-07T15:17:33;24.10;41.00
40368;DHT22;26075;43.320;21.920;2023-05-07T15:22:35;24.10;41.00
40368;DHT22;26075;43.320;21.920;2023-05-07T15:27:37;24.20;41.00
40368;DHT22;26075;43.320;21.920;2023-05-07T15:32:38;24.10;41.00
40368;DHT22;26075;43.320;21.920;2023-05-07T15:37:39;24.20;40.90
40368;DHT22;26075;43.320;21.920;2023-05-07T15:42:39;24.10;40.80
40368;DHT22;26075;43.320;21.920;2023-05-07T15:47:40;24.10;40.80
40368;DHT22;26075;43.320;21.920;2023-05-07T15:52:41;24.10;40.80
40368;DHT22;26075;43.320;21.920;2023-05-07T15:57:42;24.10;40.80
40368;DHT22;26075;43.320;21.920;2023-05-07T16:02:43;24.10;40.70
40368;DHT22;26075;43.320;21.920;2023-05-07T16:07:44;24.10;40.50
40368;DHT22;26075;43.320;21.920;2023-05-07T16:12:45;24.10;40.70
40368;DHT22;26075;43.320;21.920;2023-05-07T16:17:46;24.10;40.10
40368;DHT22;26075;43.320;21.920;2023-05-07T16:22:48;24.00;40.40
40368;DHT22;26075;43.320;21.920;2023-05-07T16:27:49;24.00;40.60
40368;DHT22;26075;43.320;21.920;2023-05-07T16:32:50;24.00;41.10
40368;DHT22;26075;43.320;21.920;2023-05-07T16:37:51;24.00;41.40
40368;DHT22;26075;43.320;21.920;2023-05-07T16:42:52;24.00;41.60
40368;DHT22;26075;43.320;21.920;2023-05-07T16:47:53;23.90;41.80
40368;DHT22;26075;43.320;21.920;2023-05-07T16:52:54;23.90;42.00
40368;DHT22;26075;43.320;21.920;2023-05-07T16:57:55;23.80;42.20
40368;DHT22;26075;43.320;21.920;2023-05-07T17:02:55;23.80;42.40
40368;DHT22;26075;43.320;21.920;2023-05-07T17:07:56;23.80;42.60
40368;DHT22;26075;43.320;21.920;2023-05-07T17:12:57;23.70;43.30
40368;DHT22;26075;43.320;21.920;2023-05-07T17:17:58;23.60;42.40
40368;DHT22;26075;43.320;21.920;2023-05-07T17:22:58;23.60;43.20
40368;DHT22;26075;43.320;21.920;2023-05-07T17:27:59;23.50;43.40
40368;DHT22;26075;43.320;21.920;2023-05-07T17:33:00;23.40;43.70
40368;DHT22;26075;43.320;21.920;2023-05-07T17:38:01;23.30;43.90
40368;DHT22;26075;43.320;21.920;2023-05-07T17:43:02;23.20;44.10
40368;DHT22;26075;43.320;21.920;2023-05-07T17:48:04;23.10;44.40
40368;DHT22;26075;43.320;21.920;2023-05-07T17:53:05;23.10;44.60
40368;DHT22;26075;43.320;21.920;2023-05-07T17:58:06;22.90;44.70
40368;DHT22;26075;43.320;21.920;2023-05-07T18:03:06;22.90;44.90
40368;DHT22;26075;43.320;21.920;2023-05-07T18:08:07;22.90;45.10
40368;DHT22;26075;43.320;21.920;2023-05-07T18:13:08;22.80;45.30
40368;DHT22;26075;43.320;21.920;2023-05-07T18:18:09;22.70;44.90
40368;DHT22;26075;43.320;21.920;2023-05-07T18:23:10;22.70;45.70
40368;DHT22;26075;43.320;21.920;2023-05-07T18:28:10;22.70;45.80
40368;DHT22;26075;43.320;21.920;2023-05-07T18:33:12;22.60;45.90
40368;DHT22;26075;43.320;21.920;2023-05-07T18:38:13;22.60;46.10
40368;DHT22;26075;43.320;21.920;2023-05-07T18:43:13;22.50;46.30
40368;DHT22;26075;43.320;21.920;2023-05-07T18:48:14;22.50;46.40
40368;DHT22;26075;43.320;21.920;2023-05-07T18:53:16;22.40;46.50
40368;DHT22;26075;43.320;21.920;2023-05-07T18:58:17;22.40;46.70
40368;DHT22;26075;43.320;21.920;2023-05-07T19:03:19;22.30;46.90
40368;DHT22;26075;43.320;21.920;2023-05-07T19:08:20;22.30;47.00
40368;DHT22;26075;43.320;21.920;2023-05-07T19:13:20;22.20;47.10
40368;DHT22;26075;43.320;21.920;2023-05-07T19:18:22;22.20;46.70
40368;DHT22;26075;43.320;21.920;2023-05-07T19:23:23;22.10;47.50
40368;DHT22;26075;43.320;21.920;2023-05-07T19:28:24;22.00;47.70
40368;DHT22;26075;43.320;21.920;2023-05-07T19:33:25;22.00;48.00
40368;DHT22;26075;43.320;21.920;2023-05-07T19:38:28;22.30;47.80
40368;DHT22;26075;43.320;21.920;2023-05-07T19:43:30;22.70;48.40
40368;DHT22;26075;43.320;21.920;2023-05-07T19:48:35;22.20;48.30
40368;DHT22;26075;43.320;21.920;2023-05-07T19:53:36;22.20;48.40
40368;DHT22;26075;43.320;21.920;2023-05-07T19:58:37;22.30;48.50
40368;DHT22;26075;43.320;21.920;2023-05-07T20:03:38;22.20;48.70
40368;DHT22;26075;43.320;21.920;2023-05-07T20:08:39;22.20;48.90
40368;DHT22;26075;43.320;21.920;2023-05-07T20:13:40;22.20;49.10
40368;DHT22;26075;43.320;21.920;2023-05-07T20:18:40;22.30;48.60
40368;DHT22;26075;43.320;21.920;2023-05-07T20:23:41;22.30;49.30
40368;DHT22;26075;43.320;21.920;2023-05-07T20:28:42;22.30;49.40
40368;DHT22;26075;43.320;21.920;2023-05-07T20:33:42;22.20;49.60
40368;DHT22;26075;43.320;21.920;2023-05-07T20:38:43;22.20;49.80
40368;DHT22;26075;43.320;21.920;2023-05-07T20:43:44;22.20;50.00
40368;DHT22;26075;43.320;21.920;2023-05-07T20:48:45;22.20;50.10
40368;DHT22;26075;43.320;21.920;2023-05-07T20:53:45;22.20;50.20
40368;DHT22;26075;43.320;21.920;2023-05-07T20:58:46;22.20;50.40
40368;DHT22;26075;43.320;21.920;2023-05-07T21:03:47;22.20;50.50
40368;DHT22;26075;43.320;21.920;2023-05-07T21:08:49;22.10;50.60
40368;DHT22;26075;43.320;21.920;2023-05-07T21:13:50;22.10;50.60
40368;DHT22;26075;43.320;21.920;2023-05-07T21:18:51;21.90;50.30
40368;DHT22;26075;43.320;21.920;2023-05-07T21:23:52;22.00;51.00
40368;DHT22;26075;43.320;21.920;2023-05-07T21:28:53;21.90;51.00
40368;DHT22;26075;43.320;21.920;2023-05-07T21:33:54;21.90;51.50
40368;DHT22;26075;43.320;21.920;2023-05-07T21:38:56;21.90;51.00
40368;DHT22;26075;43.320;21.920;2023-05-07T21:43:57;21.90;51.20
40368;DHT22;26075;43.320;21.920;2023-05-07T21:48:58;21.90;51.20
40368;DHT22;26075;43.320;21.920;2023-05-07T21:53:59;21.90;51.30
40368;DHT22;26075;43.320;21.920;2023-05-07T21:59:00;21.80;51.40
40368;DHT22;26075;43.320;21.920;2023-05-07T22:04:01;21.90;51.40
40368;DHT22;26075;43.320;21.920;2023-05-07T22:09:04;21.80;51.60
40368;DHT22;26075;43.320;21.920;2023-05-07T22:14:05;21.80;51.80
40368;DHT22;26075;43.320;21.920;2023-05-07T22:19:05;21.80;51.10
40368;DHT22;26075;43.320;21.920;2023-05-07T22:24:06;21.80;51.80
40368;DHT22;26075;43.320;21.920;2023-05-07T22:29:07;21.80;51.70
40368;DHT22;26075;43.320;21.920;2023-05-07T22:34:08;21.80;51.80
40368;DHT22;26075;43.320;21.920;2023-05-07T22:39:09;21.80;51.80
40368;DHT22;26075;43.320;21.920;2023-05-07T22:44:10;21.70;51.90
40368;DHT22;26075;43.320;21.920;2023-05-07T22:49:11;21.70;51.80
40368;DHT22;26075;43.320;21.920;2023-05-07T22:54:11;21.70;51.90
40368;DHT22;26075;43.320;21.920;2023-05-07T22:59:12;21.70;51.90
40368;DHT22;26075;43.320;21.920;2023-05-07T23:04:13;21.70;51.90
40368;DHT22;26075;43.320;21.920;2023-05-07T23:09:14;21.20;52.00
40368;DHT22;26075;43.320;21.920;2023-05-07T23:14:15;20.90;52.70
40368;DHT22;26075;43.320;21.920;2023-05-07T23:19:15;20.40;52.70
40368;DHT22;26075;43.320;21.920;2023-05-07T23:24:16;20.30;53.40
40368;DHT22;26075;43.320;21.920;2023-05-07T23:29:17;20.30;53.50
40368;DHT22;26075;43.320;21.920;2023-05-07T23:34:18;20.10;53.50
40368;DHT22;26075;43.320;21.920;2023-05-07T23:39:23;20.00;53.70
40368;DHT22;26075;43.320;21.920;2023-05-07T23:44:23;19.90;53.90
40368;DHT22;26075;43.320;21.920;2023-05-07T23:49:24;19.80;53.90
40368;DHT22;26075;43.320;21.920;2023-05-07T23:54:25;19.80;54.00
40368;DHT22;26075;43.320;21.920;2023-05-07T23:59:25;19.70;54.00
